Latest Coastal Weather Observations for Gabo Island (VIC)

IDN60701

Issued at 2:21 pm EST Friday 28 April 2017 (issued every 10 minutes, with the page automatically refreshed every 10 minutes)

About coastal observations | Map of coastal stations | Coastal observations for NSW | Marine services | Other Formats
Station Details ID: 084016 Name: GABO ISLAND LIGHTHOUSE Lat: -37.57 Lon: 149.92 Height: 15.2 m
Data from the previous 72 hours. | See also: Recent months at Gabo Island (VIC)
Date/Time
EST
Temp
°C
Wind Pressure Rain since
9am
mm
Weather Cloud Vis
km
Sea
Height
m
Swell
Dir  Spd
kts
Gust
kts
hPa Trend Height
m
Period
s
Dir
28/02:00pm 18.0 W 15 19 1019.7 - 0.0 - - - - - - -
28/01:30pm 18.3 WSW 15 20 1019.9 - 0.0 - - - - - - -
28/01:00pm 17.9 WSW 16 19 1020.2 - 0.0 - - - - - - -
28/12:30pm 18.0 WSW 13 15 1020.5 - 0.0 - - - - - - -
28/12:00pm 17.2 W 13 16 1021.0 - 0.0 - - - - - - -
28/11:30am 16.7 W 13 16 1021.6 - 0.0 - - - - - - -
28/11:00am 16.1 W 17 20 1021.8 - 0.0 - - - - - - -
28/10:30am 16.4 W 14 19 1022.0 - 0.0 - - - - - - -
28/10:00am 15.3 W 16 20 1021.9 - 0.0 - - - - - - -
28/09:30am 14.9 W 18 22 1021.8 - 0.0 - - - - - - -
28/09:00am 14.5 W 21 26 1021.6 - 0.6 Fine Mostly cloudy 30 3 1.0 - -
28/08:30am 13.9 W 18 23 1021.5 - 0.6 - - - - - - -
28/08:00am 14.4 W 23 28 1021.3 - 0.6 - - - - - - -
28/07:30am 13.8 W 22 28 1021.0 - 0.6 - - - - - - -
28/07:00am 13.5 WSW 23 30 1020.5 - 0.6 - - - - - - -
28/06:30am 13.3 W 21 27 1020.3 - 0.6 - - - - - - -
28/06:00am 13.1 W 24 29 1020.0 - 0.6 - - - - - - -
28/05:30am 13.1 W 23 29 1020.0 - 0.6 - - - - - - -
28/05:00am 13.3 W 20 28 1019.8 - 0.6 - - - - - - -
28/04:30am 12.9 W 18 23 1019.9 - 0.6 - - - - - - -
28/04:00am 12.5 W 16 20 1019.9 - 0.6 - - - - - - -
28/03:30am 12.7 W 22 29 1019.9 - 0.6 - - - - - - -
28/03:00am 12.9 W 23 29 1019.6 - 0.6 Fine Mostly cloudy 20 5 3.0 - -
28/02:30am 12.5 W 22 28 1019.7 - 0.6 - - - - - - -
28/02:00am 12.3 W 28 34 1019.5 - 0.6 - - - - - - -
28/01:30am 12.5 W 18 25 1019.8 - 0.6 - - - - - - -
28/01:00am 12.3 W 20 25 1020.0 - 0.6 - - - - - - -
28/12:30am 12.4 W 23 28 1020.0 - 0.6 - - - - - - -
28/12:00am 12.1 W 22 27 1020.2 - 0.6 - - - - - - -
 
Date/Time
EST
Temp
°C
Wind Pressure Rain since
9am
mm
Weather Cloud Vis
km
Sea
Height
m
Swell
Dir  Spd
kts
Gust
kts
hPa Trend Height
m
Period
s
Dir
27/11:30pm 11.6 W 20 26 1020.2 - 0.6 - - - - - - -
27/11:00pm 11.9 W 21 26 1020.1 - 0.6 - - - - - - -
27/10:36pm 12.1 W 23 34 1020.1 - 0.6 - - - - - - -
27/10:30pm 12.0 W 22 29 1020.1 - 0.6 - - - - - - -
27/10:00pm 11.8 W 24 29 1020.2 - 0.6 - - - - - - -
27/09:30pm 12.0 W 22 29 1020.0 - 0.6 - - - - - - -
27/09:00pm 11.4 W 27 33 1020.2 - 0.6 Rain Cloudy 20 5 3.0 - -
27/08:30pm 12.2 WSW 25 32 1019.9 - 0.6 - - - - - - -
27/08:07pm 12.0 W 19 30 1019.9 - 0.4 - - - - - - -
27/08:00pm 12.1 W 19 25 1019.9 - 0.4 - - - - - - -
27/07:30pm 12.5 W 23 29 1019.7 - 0.2 - - - - - - -
27/07:00pm 12.9 W 22 29 1019.3 - 0.2 - - - - - - -
27/06:30pm 12.1 W 19 25 1019.0 - 0.2 - - - - - - -
27/06:00pm 12.4 W 21 26 1018.5 - 0.2 - - - - - - -
27/05:30pm 12.9 W 22 28 1018.5 - 0.2 - - - - - - -
27/05:00pm 14.0 WSW 26 38 1018.2 - 0.2 - - - - - - -
27/04:56pm 13.5 WSW 23 38 1018.3 - 0.2 - - - - - - -
27/04:30pm 13.3 W 25 31 1018.3 - 0.0 - - - - - - -
27/04:19pm 13.9 W 26 37 1018.2 - 0.0 - - - - - - -
27/04:06pm 14.3 SW 27 37 1018.1 - 0.0 - - - - - - -
27/04:00pm 14.1 SW 30 37 1018.1 - 0.0 - - - - - - -
27/03:50pm 13.9 SW 32 42 1018.1 - 0.0 - - - - - - -
27/03:41pm 13.8 SW 36 42 1018.0 - 0.0 - - - - - - -
27/03:37pm 13.9 SW 25 35 1018.1 - 0.0 - - - - - - -
27/03:30pm 13.4 SW 29 35 1018.1 - 0.0 - - - - - - -
27/03:20pm 13.3 SW 31 38 1018.1 - 0.0 - - - - - - -
27/03:09pm 13.5 WSW 25 35 1017.7 - 0.0 - - - - - - -
27/03:00pm 13.9 WSW 27 35 1017.7 - 0.0 Distant precip. Mostly cloudy 20 5 3.0 - -
27/02:47pm 15.2 WSW 26 37 1017.4 - 0.0 - - - - - - -
27/02:30pm 14.5 WSW 26 32 1017.3 - 0.0 - - - - - - -
27/02:00pm 15.5 SW 29 35 1016.8 - 0.0 - - - - - - -
27/01:30pm 15.7 SW 29 34 1016.8 - 0.0 - - - - - - -
27/01:00pm 15.2 SW 30 35 1016.8 - 0.0 - - - - - - -
27/12:30pm 15.0 SW 28 37 1016.8 - 0.0 - - - - - - -
27/12:00pm 14.8 SSW 30 37 1017.1 - 0.0 - - - - - - -
27/11:30am 15.3 SSW 32 37 1017.1 - 0.0 - - - - - - -
27/11:00am 15.4 SSW 31 37 1016.8 - 0.0 - - - - - - -
27/10:30am 15.0 SW 31 38 1016.7 - 0.0 - - - - - - -
27/10:00am 14.3 SW 33 40 1016.5 - 0.0 - - - - - - -
27/09:50am 14.5 SW 35 39 1016.5 - 0.0 - - - - - - -
27/09:46am 13.9 WSW 24 35 1016.6 - 0.0 - - - - - - -
27/09:30am 12.7 WSW 24 31 1016.4 - 0.0 - - - - - - -
27/09:00am 12.5 W 24 32 1016.3 - 3.4 Fine Mostly cloudy 20 5 3.0 - -
27/08:30am 12.0 W 25 31 1016.0 - 3.4 - - - - - - -
27/08:00am 11.7 WSW 25 30 1015.6 - 3.4 - - - - - - -
27/07:30am 11.5 WSW 25 31 1015.2 - 3.4 - - - - - - -
27/07:00am 11.4 WSW 26 34 1014.6 - 3.4 - - - - - - -
27/06:30am 10.8 W 24 32 1014.4 - 3.4 - - - - - - -
27/06:00am 10.6 W 25 31 1014.1 - 3.4 - - - - - - -
27/05:30am 10.7 W 27 33 1013.8 - 3.4 - - - - - - -
27/05:00am 10.4 W 26 32 1013.7 - 3.4 - - - - - - -
27/04:30am 10.8 W 26 32 1013.3 - 3.2 - - - - - - -
27/04:11am 10.6 W 28 38 1013.0 - 3.2 - - - - - - -
27/04:00am 10.6 W 28 33 1012.9 - 3.2 - - - - - - -
27/03:30am 10.7 W 27 33 1012.7 - 3.2 - - - - - - -
27/03:00am 10.8 W 29 35 1012.6 - 3.2 Fine Mostly clear 20 5 1.0 - -
27/02:42am 11.4 W 28 38 1012.9 - 3.2 - - - - - - -
27/02:30am 11.2 WSW 28 35 1012.9 - 3.2 - - - - - - -
27/02:00am 11.0 W 28 34 1012.9 - 3.2 - - - - - - -
27/01:30am 11.5 W 28 35 1012.6 - 3.2 - - - - - - -
27/01:12am 10.7 W 28 38 1012.4 - 3.2 - - - - - - -
27/01:00am 11.0 W 30 38 1012.4 - 3.2 - - - - - - -
27/12:34am 10.8 WSW 28 38 1012.5 - 3.2 - - - - - - -
27/12:30am 11.2 WSW 28 36 1012.6 - 3.2 - - - - - - -
27/12:00am 10.9 W 30 37 1012.4 - 3.2 - - - - - - -
 
Date/Time
EST
Temp
°C
Wind Pressure Rain since
9am
mm
Weather Cloud Vis
km
Sea
Height
m
Swell
Dir  Spd
kts
Gust
kts
hPa Trend Height
m
Period
s
Dir
26/11:35pm 11.9 WSW 29 41 1012.4 - 3.2 - - - - - - -
26/11:30pm 11.3 WSW 30 37 1012.3 - 3.2 - - - - - - -
26/11:00pm 11.8 W 28 37 1011.9 - 3.2 - - - - - - -
26/10:30pm 11.7 W 30 37 1011.7 - 3.2 - - - - - - -
26/10:12pm 11.9 WSW 29 39 1011.6 - 3.2 - - - - - - -
26/10:00pm 12.0 WSW 29 36 1011.7 - 3.0 - - - - - - -
26/09:33pm 11.7 W 26 36 1011.2 - 3.0 - - - - - - -
26/09:30pm 13.2 WSW 27 36 1011.3 - 3.0 - - - - - - -
26/09:04pm 13.8 WSW 31 46 1010.9 - 3.0 - - - - - - -
26/09:00pm 13.2 WSW 31 37 1010.8 - 2.8 Fine Cloudy 15 5 1.0 - -
26/08:33pm 12.9 WSW 36 46 1010.2 - 2.8 - - - - - - -
26/08:30pm 13.1 WSW 35 44 1010.2 - 2.8 - - - - - - -
26/08:03pm 13.7 WSW 36 46 1009.9 - 2.8 - - - - - - -
26/08:00pm 14.7 SW 38 46 1009.7 - 2.8 - - - - - - -
26/07:31pm 13.9 WSW 35 45 1009.7 - 2.8 - - - - - - -
26/07:30pm 13.7 WSW 36 45 1009.6 - 2.8 - - - - - - -
26/07:05pm 13.2 WSW 31 43 1009.3 - 2.4 - - - - - - -
26/07:00pm 13.5 WSW 30 38 1009.3 - 2.4 - - - - - - -
26/06:30pm 13.7 WSW 32 42 1008.8 - 1.6 - - - - - - -
26/06:04pm 13.9 WSW 32 43 1008.4 - 1.2 - - - - - - -
26/06:00pm 13.7 WSW 34 43 1008.2 - 1.2 Rain - - - - - -
26/05:30pm 13.3 WSW 36 47 1007.5 - 1.0 - - - - - - -
26/05:00pm 14.3 WSW 34 45 1006.8 - 0.4 - - - - - - -
26/04:46pm 14.6 WSW 32 42 1006.3 - 0.4 - - - - - - -
26/04:30pm 14.5 WSW 29 37 1006.1 - 0.4 - - - - - - -
26/04:25pm 14.4 WSW 27 37 1006.0 - 0.4 - - - - - - -
26/04:00pm 13.9 W 28 36 1006.3 - 0.4 - - - - - - -
26/03:36pm 14.5 WSW 31 41 1006.2 - 0.4 - - - - - - -
26/03:30pm 14.7 WSW 31 38 1006.1 - 0.4 - - - - - - -
26/03:01pm 15.4 WSW 28 40 1005.7 - 0.4 - - - - - - -
26/03:00pm 15.3 WSW 26 34 1005.5 - 0.4 Rain Cloudy 15 3 1.0 - -
26/02:30pm 15.3 W 26 33 1004.9 - 0.4 - - - - - - -
26/02:00pm 15.8 W 24 32 1004.8 - 0.4 - - - - - - -
26/01:30pm 14.9 W 23 29 1004.8 - 0.4 - - - - - - -
26/01:00pm 15.0 WSW 25 30 1004.6 - 0.2 - - - - - - -
26/12:33pm 14.5 W 19 29 1004.5 - 0.2 - - - - - - -
26/12:30pm 14.5 W 17 22 1004.5 - 0.2 - - - - - - -
26/12:22pm 14.4 W 18 24 1004.5 - 0.2 - - - - - - -
26/12:00pm 14.8 WSW 22 28 1004.4 - 0.2 - - - - - - -
26/11:30am 14.7 WSW 23 29 1004.2 - 0.2 - - - - - - -
26/11:00am 16.1 WSW 29 36 1004.2 - 0.2 - - - - - - -
26/10:35am 16.7 SW 24 35 1003.8 - 0.2 - - - - - - -
26/10:30am 17.7 SW 21 26 1003.7 - 0.2 - - - - - - -
26/10:24am 18.0 SW 20 26 1003.5 - 0.2 - - - - - - -
26/10:00am 17.1 WSW 9 11 1003.4 - 0.0 - - - - - - -
26/09:30am 16.5 W 8 10 1003.5 - 0.0 - - - - - - -
26/09:00am 16.2 W 6 7 1003.5 - 6.4 Rain Mostly cloudy 40 1 1.0 - -
26/08:30am 14.9 NW 5 6 1003.9 - 6.4 - - - - - - -
26/08:00am 14.5 N 5 6 1004.0 - 6.2 - - - - - - -
26/07:30am 14.3 NNW 6 8 1003.8 - 6.2 - - - - - - -
26/07:00am 14.8 WSW 11 15 1003.5 - 6.2 - - - - - - -
26/06:30am 13.8 WNW 8 9 1002.9 - 6.2 - - - - - - -
26/06:00am 13.3 W 7 8 1002.8 - 6.2 - - - - - - -
26/05:30am 13.9 CALM 0 0 1002.8 - 6.2 - - - - - - -
26/05:00am 13.6 N 1 4 1002.7 - 6.2 - - - - - - -
26/04:30am 14.2 N 3 4 1002.7 - 6.2 - - - - - - -
26/04:00am 14.0 NNW 7 8 1002.7 - 6.2 - - - - - - -
26/03:30am 14.7 NW 8 10 1003.1 - 6.2 - - - - - - -
26/03:00am 14.6 WNW 6 7 1003.2 - 6.2 Fine Mostly clear 40 1 1.0 - -
26/02:30am 14.3 NW 7 8 1003.7 - 6.2 - - - - - - -
26/02:00am 14.3 NW 6 7 1004.2 - 6.2 - - - - - - -
26/01:30am 14.4 NNW 5 6 1004.6 - 6.2 - - - - - - -
26/01:00am 14.1 NNW 5 6 1004.9 - 6.2 - - - - - - -
26/12:30am 15.2 W 7 11 1005.1 - 6.2 - - - - - - -
26/12:00am 15.4 W 8 10 1005.2 - 6.2 - - - - - - -
 
Date/Time
EST
Temp
°C
Wind Pressure Rain since
9am
mm
Weather Cloud Vis
km
Sea
Height
m
Swell
Dir  Spd
kts
Gust
kts
hPa Trend Height
m
Period
s
Dir
25/11:30pm 16.1 W 11 14 1005.3 - 6.2 - - - - - - -
25/11:00pm 16.0 W 12 17 1005.4 - 6.2 - - - - - - -
25/10:30pm 16.2 W 13 16 1005.5 - 6.2 - - - - - - -
25/10:00pm 16.0 WNW 9 13 1005.3 - 6.2 - - - - - - -
25/09:30pm 16.4 W 12 16 1005.5 - 6.2 - - - - - - -
25/09:00pm 16.5 W 16 21 1005.4 - 6.2 Lightning Mostly cloudy 20 1 1.0 - -
25/08:30pm 16.6 W 16 19 1005.3 - 6.2 - - - - - - -
25/08:00pm 16.9 W 16 19 1005.5 - 6.2 - - - - - - -
25/07:30pm 16.9 W 16 21 1005.4 - 6.2 - - - - - - -
25/07:00pm 17.1 W 15 19 1005.1 - 6.2 - - - - - - -
25/06:30pm 17.8 W 17 21 1004.6 - 6.2 - - - - - - -
25/06:00pm 17.7 W 13 18 1004.1 - 6.2 - - - - - - -
25/05:30pm 17.8 WNW 6 8 1003.4 - 6.2 - - - - - - -
25/05:00pm 18.2 W 7 10 1002.9 - 6.2 - - - - - - -
25/04:30pm 18.1 WNW 6 8 1002.8 - 6.2 - - - - - - -
25/04:00pm 18.5 W 7 9 1002.6 - 6.2 - - - - - - -
25/03:30pm 18.7 NNE 8 9 1003.0 - 6.2 - - - - - - -
25/03:00pm 18.2 NNE 8 10 1003.5 - 6.2 Rain Cloudy 20 1 1.0 - -
25/02:30pm 17.9 N 9 11 1004.0 - 6.2 - - - - - - -

Other Formats:

Comma delimited format used in spreadsheet applications
http://www.bom.gov.au/fwo/IDN60701/IDN60701.94933.axf

JavaScript Object Notation format (JSON) in row-major order
http://www.bom.gov.au/fwo/IDN60701/IDN60701.94933.json